createdAt,value
2018-07-23T00:02:02.238Z,84.74
2018-07-23T00:04:30.790Z,84.50
2018-07-23T00:06:59.321Z,85.09
2018-07-23T00:09:27.816Z,85.58
2018-07-23T00:11:56.368Z,86.04
2018-07-23T00:14:24.907Z,86.52
2018-07-23T00:16:53.660Z,86.55
2018-07-23T00:19:22.243Z,86.76
2018-07-23T00:21:50.807Z,87.86
2018-07-23T00:24:19.314Z,87.63
2018-07-23T00:26:47.814Z,88.15
2018-07-23T00:29:16.298Z,88.97
2018-07-23T00:31:44.794Z,88.86
2018-07-23T00:34:13.247Z,87.90
2018-07-23T00:36:41.888Z,88.15
2018-07-23T00:39:10.677Z,88.60
2018-07-23T00:41:39.257Z,88.57
2018-07-23T00:44:07.894Z,88.92
2018-07-23T00:46:36.465Z,89.00
2018-07-23T00:49:05.423Z,89.69
2018-07-23T00:51:34.081Z,89.72
2018-07-23T00:54:02.590Z,90.44
2018-07-23T00:56:31.146Z,90.92
2018-07-23T00:58:59.746Z,90.84
2018-07-23T01:01:28.342Z,90.38
2018-07-23T01:03:56.899Z,90.60
2018-07-23T01:06:25.601Z,91.29
2018-07-23T01:08:54.167Z,91.35
2018-07-23T01:11:22.731Z,91.46
2018-07-23T01:13:51.532Z,92.29
2018-07-23T01:16:20.047Z,92.05
2018-07-23T01:18:48.577Z,92.01
2018-07-23T01:21:17.360Z,91.49
2018-07-23T01:23:46.086Z,91.95
2018-07-23T01:26:14.562Z,92.03
2018-07-23T01:28:43.165Z,92.73
2018-07-23T01:31:11.774Z,92.62
2018-07-23T01:33:40.305Z,92.77
2018-07-23T01:36:09.229Z,93.40
2018-07-23T01:38:37.785Z,93.49
2018-07-23T01:41:06.797Z,94.46
2018-07-23T01:43:35.514Z,94.59
2018-07-23T01:46:04.306Z,94.51
2018-07-23T01:48:32.931Z,95.04
2018-07-23T01:51:01.712Z,94.54
2018-07-23T01:53:30.262Z,94.89
2018-07-23T02:02:42.453Z,95.46
2018-07-23T02:05:10.954Z,96.01
2018-07-23T02:07:39.529Z,96.25
2018-07-23T02:10:08.022Z,95.76
2018-07-23T02:12:38.110Z,95.65
2018-07-23T02:15:06.615Z,95.82
2018-07-23T02:17:35.421Z,95.89
2018-07-23T02:20:04.946Z,96.03
2018-07-23T02:22:33.633Z,97.14
2018-07-23T02:25:02.538Z,97.20
2018-07-23T02:27:31.069Z,97.33
2018-07-23T02:29:59.519Z,97.33
2018-07-23T02:32:28.115Z,97.70
2018-07-23T02:34:56.580Z,97.50
2018-07-23T02:37:25.814Z,97.64
2018-07-23T02:39:54.271Z,98.19
2018-07-23T02:42:22.826Z,99.04
2018-07-23T02:44:51.723Z,99.06
2018-07-23T02:47:20.269Z,99.17
2018-07-23T02:49:49.584Z,99.23
2018-07-23T02:52:18.343Z,99.56
2018-07-23T02:54:47.071Z,99.60
2018-07-23T02:57:15.668Z,99.67
2018-07-23T02:59:44.235Z,99.18
2018-07-23T03:02:12.860Z,99.67
2018-07-23T03:04:41.419Z,100.00
2018-07-23T03:07:09.978Z,100.00
2018-07-23T03:09:38.658Z,100.00
2018-07-23T03:12:07.214Z,100.00
2018-07-23T03:14:35.705Z,100.00
2018-07-23T03:17:04.372Z,100.00
2018-07-23T03:19:33.271Z,100.00
2018-07-23T03:22:01.788Z,100.00
2018-07-23T03:24:30.366Z,100.00
2018-07-23T03:26:58.890Z,100.00
2018-07-23T03:29:28.285Z,100.00
2018-07-23T03:31:56.942Z,100.00
2018-07-23T03:34:25.610Z,100.00
2018-07-23T03:36:54.168Z,100.00
2018-07-23T03:39:22.693Z,100.00
2018-07-23T03:41:51.334Z,100.00
2018-07-23T03:44:19.843Z,100.00
2018-07-23T03:46:48.754Z,100.00
2018-07-23T03:49:17.386Z,100.00
2018-07-23T03:51:45.909Z,100.00
2018-07-23T03:54:14.530Z,100.00
2018-07-23T03:56:43.363Z,100.00
2018-07-23T03:59:11.876Z,100.00
2018-07-23T04:01:40.538Z,100.00
2018-07-23T04:04:09.249Z,100.00
2018-07-23T04:06:37.904Z,100.00
2018-07-23T04:09:08.709Z,100.00
2018-07-23T04:11:37.195Z,100.00
2018-07-23T04:14:06.169Z,100.00
2018-07-23T04:16:34.971Z,100.00
2018-07-23T04:19:03.521Z,100.00
2018-07-23T04:21:32.259Z,100.00
2018-07-23T04:24:00.783Z,100.00
2018-07-23T04:26:29.371Z,100.00
2018-07-23T04:28:58.113Z,100.00
2018-07-23T04:31:26.598Z,100.00
2018-07-23T04:33:55.094Z,100.00
2018-07-23T04:36:23.575Z,100.00
2018-07-23T04:38:52.134Z,100.00
2018-07-23T04:41:20.643Z,100.00
2018-07-23T04:43:49.145Z,100.00
2018-07-23T04:46:17.750Z,100.00
2018-07-23T04:48:46.355Z,99.07
2018-07-23T04:51:14.861Z,98.66
2018-07-23T04:53:43.447Z,98.79
2018-07-23T04:56:11.961Z,98.54
2018-07-23T04:58:40.380Z,98.77
2018-07-23T05:01:08.924Z,98.82
2018-07-23T05:03:37.459Z,98.26
2018-07-23T05:06:05.997Z,98.40
2018-07-23T05:08:34.534Z,98.81
2018-07-23T05:11:03.139Z,98.87
2018-07-23T05:13:31.702Z,98.67
2018-07-23T05:16:00.273Z,98.59
2018-07-23T05:18:28.754Z,98.47
2018-07-23T05:20:57.291Z,97.84
2018-07-23T05:23:25.702Z,97.37
2018-07-23T05:25:54.223Z,97.85
2018-07-23T05:28:22.702Z,97.55
2018-07-23T05:30:51.373Z,96.87
2018-07-23T05:33:19.856Z,97.39
2018-07-23T05:35:48.447Z,97.54
2018-07-23T05:38:17.160Z,96.02
2018-07-23T05:40:45.723Z,96.78
2018-07-23T05:43:14.194Z,96.79
2018-07-23T05:45:42.770Z,95.61
2018-07-23T05:48:11.235Z,95.08
2018-07-23T05:50:39.695Z,95.38
2018-07-23T05:53:08.374Z,93.62
2018-07-23T05:55:36.893Z,93.73
2018-07-23T05:58:05.553Z,93.72
2018-07-23T06:00:34.075Z,93.05
2018-07-23T06:03:02.569Z,91.33
2018-07-23T06:05:31.346Z,90.99
2018-07-23T06:07:59.874Z,90.30
2018-07-23T06:10:28.431Z,89.87
2018-07-23T06:12:56.931Z,87.96
2018-07-23T06:15:25.611Z,87.26
2018-07-23T06:17:54.246Z,86.53
2018-07-23T06:20:22.756Z,86.79
2018-07-23T06:22:51.381Z,86.38
2018-07-23T06:25:19.925Z,85.04
2018-07-23T06:27:48.406Z,84.10
2018-07-23T06:30:16.896Z,83.62
2018-07-23T06:32:45.438Z,83.41
2018-07-23T06:35:14.070Z,83.26
2018-07-23T06:37:42.740Z,83.88
2018-07-23T06:40:11.270Z,83.00
2018-07-23T06:42:39.964Z,82.02
2018-07-23T06:45:08.394Z,82.57
2018-07-23T06:47:36.928Z,82.43
2018-07-23T06:50:05.483Z,81.95
2018-07-23T06:52:34.088Z,81.74
2018-07-23T06:55:02.612Z,80.73
2018-07-23T06:57:31.176Z,79.71
2018-07-23T06:59:59.705Z,79.84
2018-07-23T07:02:28.198Z,78.68
2018-07-23T07:04:57.690Z,78.27
2018-07-23T07:07:26.187Z,78.99
2018-07-23T07:09:54.734Z,78.35
2018-07-23T07:12:23.237Z,78.72
2018-07-23T07:14:51.880Z,77.35
2018-07-23T07:17:20.610Z,77.42
2018-07-23T07:19:49.246Z,76.86
2018-07-23T07:22:17.810Z,76.72
2018-07-23T07:24:46.527Z,76.90
2018-07-23T07:27:15.148Z,76.53
2018-07-23T07:29:43.675Z,76.83
2018-07-23T07:32:12.198Z,74.58
2018-07-23T07:34:40.770Z,74.24
2018-07-23T07:37:10.281Z,74.10
2018-07-23T07:39:38.769Z,73.41
2018-07-23T07:42:07.296Z,72.58
2018-07-23T07:44:36.158Z,71.80
2018-07-23T07:47:05.110Z,71.47
2018-07-23T07:49:33.958Z,70.90
2018-07-23T07:52:02.447Z,72.69
2018-07-23T07:54:30.942Z,72.20
2018-07-23T07:56:59.855Z,71.18
2018-07-23T07:59:28.683Z,69.86
2018-07-23T08:01:57.186Z,69.06
2018-07-23T08:04:25.698Z,69.72
2018-07-23T08:06:54.554Z,69.65
2018-07-23T08:09:23.246Z,68.17
2018-07-23T08:11:51.784Z,68.99
2018-07-23T08:14:20.314Z,69.17
2018-07-23T08:16:48.831Z,68.45
2018-07-23T08:19:17.330Z,67.47
2018-07-23T08:21:45.867Z,67.52
2018-07-23T08:24:14.430Z,66.67
2018-07-23T08:26:42.990Z,65.35
2018-07-23T08:29:11.616Z,65.12
2018-07-23T08:31:40.145Z,65.76
2018-07-23T08:34:08.842Z,64.78
2018-07-23T08:36:37.786Z,65.08
2018-07-23T08:39:09.408Z,63.64
2018-07-23T08:41:37.977Z,62.68
2018-07-23T08:44:07.095Z,64.15
2018-07-23T08:46:35.751Z,62.17
2018-07-23T08:49:05.075Z,63.26
2018-07-23T08:51:34.323Z,61.80
2018-07-23T08:54:02.799Z,60.83
2018-07-23T08:56:31.333Z,59.85
2018-07-23T08:58:59.902Z,60.27
2018-07-23T09:01:28.497Z,59.03
2018-07-23T09:03:57.711Z,60.53
2018-07-23T09:06:26.829Z,59.35
2018-07-23T09:08:55.411Z,58.36
2018-07-23T09:11:23.950Z,59.77
2018-07-23T09:13:53.714Z,58.33
2018-07-23T09:16:22.199Z,57.96
2018-07-23T09:18:50.712Z,57.12
2018-07-23T09:21:19.330Z,57.45
2018-07-23T09:23:48.003Z,55.85
2018-07-23T09:26:16.698Z,54.10
2018-07-23T09:28:45.304Z,55.32
2018-07-23T09:31:13.975Z,54.37
2018-07-23T09:33:42.486Z,53.05
2018-07-23T09:36:10.979Z,51.78
2018-07-23T09:38:39.605Z,51.41
2018-07-23T09:41:08.372Z,51.56
2018-07-23T09:43:37.451Z,51.04
2018-07-23T09:46:06.137Z,50.30
2018-07-23T09:48:34.615Z,48.87
2018-07-23T09:51:03.438Z,48.68
2018-07-23T09:53:32.051Z,46.40
2018-07-23T09:56:00.598Z,46.67
2018-07-23T09:58:29.450Z,44.13
2018-07-23T10:01:03.433Z,44.57
2018-07-23T10:03:31.957Z,42.97
2018-07-23T10:06:00.415Z,40.88
2018-07-23T10:08:29.883Z,42.14
2018-07-23T10:10:58.635Z,39.03
2018-07-23T10:13:27.098Z,39.30
2018-07-23T10:15:55.596Z,38.17
2018-07-23T10:18:24.155Z,39.18
2018-07-23T10:20:52.911Z,37.76
2018-07-23T10:23:21.666Z,37.01
2018-07-23T10:25:51.219Z,35.84
2018-07-23T10:28:19.768Z,34.12
2018-07-23T10:30:48.238Z,35.42
2018-07-23T10:33:16.786Z,36.26
2018-07-23T10:35:45.553Z,36.27
2018-07-23T10:38:14.241Z,34.06
2018-07-23T10:40:42.919Z,34.22
2018-07-23T10:43:11.448Z,34.52
2018-07-23T10:45:40.037Z,37.01
2018-07-23T10:48:08.610Z,34.91
2018-07-23T10:50:37.347Z,32.70
2018-07-23T10:53:05.842Z,34.58
2018-07-23T10:55:34.323Z,34.26
2018-07-23T10:58:02.868Z,32.18
2018-07-23T11:00:32.834Z,31.28
2018-07-23T11:03:01.425Z,31.85
2018-07-23T11:05:30.087Z,35.12
2018-07-23T11:07:58.587Z,38.22
2018-07-23T11:10:27.157Z,40.06
2018-07-23T11:12:55.638Z,41.09
2018-07-23T11:15:24.411Z,40.80
2018-07-23T11:17:53.093Z,36.60
2018-07-23T11:20:21.687Z,32.65
2018-07-23T11:22:50.287Z,32.97
2018-07-23T11:25:39.178Z,31.77
2018-07-23T11:27:47.470Z,31.83
2018-07-23T11:30:16.022Z,29.60
2018-07-23T11:32:44.679Z,32.42
2018-07-23T11:35:13.157Z,33.93
2018-07-23T11:37:41.786Z,34.45
2018-07-23T11:40:10.263Z,37.10
2018-07-23T11:42:38.864Z,37.88
2018-07-23T11:45:07.363Z,37.70
2018-07-23T11:47:35.944Z,37.32
2018-07-23T11:50:04.524Z,37.61
2018-07-23T11:52:33.090Z,38.54
2018-07-23T11:55:01.701Z,38.01
2018-07-23T11:57:30.231Z,38.63
2018-07-23T11:59:58.724Z,38.90
2018-07-23T12:02:27.441Z,40.00
2018-07-23T12:04:56.013Z,39.42
2018-07-23T12:07:24.659Z,39.05
2018-07-23T12:09:53.141Z,36.15
2018-07-23T12:12:21.654Z,34.40
2018-07-23T12:14:50.686Z,30.72
2018-07-23T12:17:19.227Z,29.05
2018-07-23T12:19:47.961Z,30.49
2018-07-23T12:22:16.549Z,31.67
2018-07-23T12:24:45.242Z,31.00
2018-07-23T12:27:13.746Z,33.48
2018-07-23T12:29:42.362Z,30.28
2018-07-23T12:32:10.910Z,26.06
2018-07-23T12:34:39.419Z,25.74
2018-07-23T12:37:07.960Z,22.91
2018-07-23T12:39:36.806Z,21.39
2018-07-23T12:42:05.382Z,21.42
2018-07-23T12:44:33.841Z,20.58
2018-07-23T12:47:03.338Z,19.05
2018-07-23T12:49:31.838Z,19.38
2018-07-23T12:52:00.333Z,18.53
2018-07-23T12:54:28.829Z,19.67
2018-07-23T12:56:57.601Z,22.91
2018-07-23T12:59:26.483Z,25.36
2018-07-23T13:01:55.003Z,24.28
2018-07-23T13:04:23.485Z,26.67
2018-07-23T13:06:52.017Z,29.90
2018-07-23T13:09:20.642Z,30.20
2018-07-23T13:11:49.099Z,31.36
2018-07-23T13:14:17.679Z,32.11
2018-07-23T13:16:46.267Z,31.57
2018-07-23T13:19:14.858Z,32.38
2018-07-23T13:21:43.449Z,33.32
2018-07-23T13:24:12.190Z,31.49
2018-07-23T13:26:40.713Z,33.03
2018-07-23T13:29:09.485Z,34.36
2018-07-23T13:31:38.049Z,34.46
2018-07-23T13:34:06.658Z,35.92
2018-07-23T13:36:35.166Z,36.19
2018-07-23T13:39:03.817Z,37.76
2018-07-23T13:41:32.362Z,37.79
2018-07-23T13:44:01.127Z,39.20
2018-07-23T13:46:29.623Z,39.49
2018-07-23T13:48:58.218Z,39.94
2018-07-23T13:51:26.806Z,39.03
2018-07-23T13:53:55.503Z,38.35
2018-07-23T13:56:24.093Z,37.59
2018-07-23T13:58:52.742Z,37.69
2018-07-23T14:01:21.345Z,34.29
2018-07-23T14:03:50.196Z,30.54
2018-07-23T14:06:18.697Z,31.94
2018-07-23T14:08:47.460Z,35.12
2018-07-23T14:11:16.071Z,36.08
2018-07-23T14:13:44.890Z,37.35
2018-07-23T14:16:13.386Z,38.49
2018-07-23T14:18:42.002Z,38.35
2018-07-23T14:21:10.543Z,39.30
2018-07-23T14:23:39.041Z,39.48
2018-07-23T14:26:07.600Z,38.38
2018-07-23T14:28:36.128Z,39.12
2018-07-23T14:31:04.585Z,37.30
2018-07-23T14:33:33.068Z,35.92
2018-07-23T14:36:01.665Z,27.71
2018-07-23T14:38:30.321Z,27.39
2018-07-23T14:40:58.839Z,26.46
2018-07-23T14:43:27.575Z,24.28
2018-07-23T14:45:56.419Z,21.66
2018-07-23T14:48:24.878Z,25.84
2018-07-23T14:50:53.836Z,28.65
2018-07-23T14:53:23.042Z,31.24
2018-07-23T14:55:51.759Z,30.87
2018-07-23T14:58:20.425Z,33.97
2018-07-23T15:00:48.983Z,35.23
2018-07-23T15:03:17.624Z,35.37
2018-07-23T15:05:46.130Z,35.97
2018-07-23T15:08:14.710Z,36.13
2018-07-23T15:10:43.495Z,36.75
2018-07-23T15:13:12.275Z,36.87
2018-07-23T15:15:40.970Z,35.07
2018-07-23T15:18:09.526Z,27.72
2018-07-23T15:20:38.067Z,24.11
2018-07-23T15:23:07.055Z,21.84
2018-07-23T15:25:35.667Z,20.44
2018-07-23T15:28:04.755Z,20.33
2018-07-23T15:30:33.287Z,18.90
2018-07-23T15:33:01.790Z,18.04
2018-07-23T15:35:30.349Z,17.85
2018-07-23T15:37:59.299Z,18.17
2018-07-23T15:40:27.886Z,18.26
2018-07-23T15:42:56.408Z,18.77
2018-07-23T15:45:25.022Z,18.65
2018-07-23T15:47:53.526Z,17.09
2018-07-23T15:50:22.054Z,17.58
2018-07-23T15:52:50.562Z,17.58
2018-07-23T15:55:19.196Z,17.63
2018-07-23T15:57:47.754Z,15.79
2018-07-23T16:00:16.377Z,18.24
2018-07-23T16:02:45.125Z,16.00
2018-07-23T16:05:13.722Z,18.81
2018-07-23T16:07:42.366Z,17.89
2018-07-23T16:10:10.838Z,17.79
2018-07-23T16:12:39.330Z,17.79
2018-07-23T16:15:08.585Z,18.27
2018-07-23T16:17:37.125Z,16.49
2018-07-23T16:20:06.226Z,15.82
2018-07-23T16:22:35.046Z,19.27
2018-07-23T16:25:03.662Z,21.46
2018-07-23T16:27:32.166Z,24.12
2018-07-23T16:30:00.937Z,21.12
2018-07-23T16:32:29.697Z,19.70
2018-07-23T16:34:58.206Z,18.95
2018-07-23T16:37:26.934Z,17.60
2018-07-23T16:39:55.518Z,17.16
2018-07-23T16:42:24.142Z,17.15
2018-07-23T16:44:52.721Z,17.22
2018-07-23T16:47:21.225Z,17.57
2018-07-23T16:49:49.859Z,17.79
2018-07-23T16:52:18.488Z,16.84
2018-07-23T16:54:47.266Z,17.98
2018-07-23T16:57:15.734Z,18.65
2018-07-23T16:59:44.292Z,18.47
2018-07-23T17:02:12.858Z,18.05
2018-07-23T17:04:41.482Z,17.64
2018-07-23T17:07:09.982Z,18.43
2018-07-23T17:09:38.648Z,17.60
2018-07-23T17:12:07.263Z,17.67
2018-07-23T17:14:36.833Z,17.93
2018-07-23T17:17:05.681Z,18.56
2018-07-23T17:19:34.558Z,20.26
2018-07-23T17:22:03.142Z,20.68
2018-07-23T17:24:31.757Z,22.05
2018-07-23T17:27:00.334Z,21.55
2018-07-23T17:29:29.114Z,20.90
2018-07-23T17:31:57.670Z,21.30
2018-07-23T17:34:26.149Z,21.48
2018-07-23T17:36:54.686Z,23.13
2018-07-23T17:39:23.174Z,26.13
2018-07-23T17:41:51.868Z,30.88
2018-07-23T17:44:20.462Z,32.75
2018-07-23T17:46:49.113Z,34.87
2018-07-23T17:49:17.876Z,35.26
2018-07-23T17:51:46.427Z,36.26
2018-07-23T17:54:15.238Z,36.44
2018-07-23T17:56:43.811Z,35.74
2018-07-23T17:59:12.447Z,34.62
2018-07-23T18:01:41.181Z,33.47
2018-07-23T18:04:09.805Z,35.51
2018-07-23T18:06:38.554Z,36.33
2018-07-23T18:09:09.933Z,38.42
2018-07-23T18:11:38.789Z,40.11
2018-07-23T18:14:07.527Z,40.84
2018-07-23T18:16:36.654Z,41.02
2018-07-23T18:19:05.160Z,40.95
2018-07-23T18:21:33.780Z,41.92
2018-07-23T18:24:06.594Z,43.12
2018-07-23T18:26:35.485Z,44.45
2018-07-23T18:29:04.105Z,44.00
2018-07-23T18:31:32.759Z,45.74
2018-07-23T18:34:01.223Z,45.94
2018-07-23T18:36:30.118Z,46.55
2018-07-23T18:38:58.590Z,47.32
2018-07-23T18:41:27.081Z,48.24
2018-07-23T18:43:55.546Z,48.24
2018-07-23T18:46:24.145Z,49.78
2018-07-23T18:50:00.563Z,49.51
2018-07-23T18:52:30.169Z,48.81
2018-07-23T18:55:00.313Z,49.93
2018-07-23T18:57:28.822Z,49.98
2018-07-23T18:59:57.385Z,50.28
2018-07-23T19:02:25.933Z,50.80
2018-07-23T19:04:54.502Z,51.41
2018-07-23T19:07:22.987Z,52.67
2018-07-23T19:09:51.622Z,53.17
2018-07-23T19:12:20.386Z,52.87
2018-07-23T19:14:48.942Z,53.63
2018-07-23T19:17:17.542Z,53.95
2018-07-23T19:19:46.126Z,54.84
2018-07-23T19:22:14.749Z,55.30
2018-07-23T19:24:43.247Z,55.97
2018-07-23T19:27:12.198Z,57.03
2018-07-23T19:29:40.718Z,57.97
2018-07-23T19:32:09.246Z,58.64
2018-07-23T19:34:37.979Z,58.21
2018-07-23T19:37:06.813Z,58.78
2018-07-23T19:39:35.427Z,58.95
2018-07-23T19:42:04.335Z,59.85
2018-07-23T19:44:32.867Z,59.81
2018-07-23T19:47:01.353Z,59.98
2018-07-23T19:49:29.799Z,60.79
2018-07-23T19:51:58.415Z,60.63
2018-07-23T19:54:26.853Z,61.04
2018-07-23T19:56:55.480Z,61.89
2018-07-23T19:59:23.949Z,62.00
2018-07-23T20:01:52.919Z,62.11
2018-07-23T20:04:23.302Z,62.83
2018-07-23T20:06:52.133Z,62.59
2018-07-23T20:09:20.624Z,63.50
2018-07-23T20:11:49.186Z,63.69
2018-07-23T20:14:17.731Z,64.57
2018-07-23T20:16:46.294Z,65.13
2018-07-23T20:19:14.835Z,65.18
2018-07-23T20:21:43.675Z,65.58
2018-07-23T20:24:12.302Z,66.22
2018-07-23T20:26:40.871Z,66.54
2018-07-23T20:29:09.834Z,66.75
2018-07-23T20:31:38.510Z,66.96
2018-07-23T20:34:07.005Z,67.36
2018-07-23T20:36:35.567Z,67.43
2018-07-23T20:39:05.784Z,67.70
2018-07-23T20:41:34.294Z,68.09
2018-07-23T20:44:02.966Z,68.29
2018-07-23T20:46:31.626Z,69.31
2018-07-23T20:49:00.142Z,69.53
2018-07-23T20:51:28.849Z,69.84
2018-07-23T20:53:57.414Z,69.56
2018-07-23T20:56:25.977Z,69.58
2018-07-23T20:58:54.602Z,69.45
2018-07-23T21:01:23.090Z,69.96
2018-07-23T21:03:52.051Z,69.64
2018-07-23T21:06:20.642Z,70.04
2018-07-23T21:08:49.213Z,69.90
2018-07-23T21:11:17.781Z,69.98
2018-07-23T21:13:46.386Z,69.84
2018-07-23T21:16:14.998Z,69.68
2018-07-23T21:18:43.520Z,70.03
2018-07-23T21:21:12.266Z,70.20
2018-07-23T21:23:40.771Z,70.10
2018-07-23T21:26:09.241Z,69.96
2018-07-23T21:28:37.769Z,70.09
2018-07-23T21:31:06.629Z,69.95
2018-07-23T21:33:35.262Z,70.25
2018-07-23T21:36:03.950Z,70.56
2018-07-23T21:38:32.476Z,70.32
2018-07-23T21:41:00.965Z,70.07
2018-07-23T21:43:29.557Z,70.29
2018-07-23T21:45:57.990Z,69.71
2018-07-23T21:48:26.562Z,69.68
2018-07-23T21:50:55.218Z,69.70
2018-07-23T21:53:23.679Z,69.28
2018-07-23T21:55:52.312Z,69.05
2018-07-23T21:58:20.885Z,68.27
2018-07-23T22:00:49.470Z,67.86
2018-07-23T22:03:18.026Z,68.27
2018-07-23T22:05:46.555Z,68.08
2018-07-23T22:08:15.086Z,67.94
2018-07-23T22:10:44.187Z,67.87
2018-07-23T22:13:12.715Z,67.99
2018-07-23T22:15:41.322Z,67.36
2018-07-23T22:18:09.969Z,68.05
2018-07-23T22:20:38.556Z,68.22
2018-07-23T22:23:07.117Z,68.32
2018-07-23T22:25:35.611Z,69.45
2018-07-23T22:28:04.114Z,69.69
2018-07-23T22:30:32.818Z,69.72
2018-07-23T22:33:01.298Z,70.05
2018-07-23T22:35:29.891Z,70.77
2018-07-23T22:37:58.530Z,70.34
2018-07-23T22:40:27.057Z,70.83
2018-07-23T22:42:55.819Z,71.23
2018-07-23T22:45:24.360Z,71.04
2018-07-23T22:47:53.226Z,70.88
2018-07-23T22:50:21.876Z,70.92
2018-07-23T22:52:50.374Z,71.59
2018-07-23T22:55:18.895Z,70.59
2018-07-23T22:57:47.472Z,70.58
2018-07-23T23:00:16.076Z,70.11
2018-07-23T23:02:44.554Z,70.27
2018-07-23T23:05:13.446Z,70.46
2018-07-23T23:07:42.129Z,71.38
2018-07-23T23:10:11.016Z,71.53
2018-07-23T23:12:39.535Z,72.40
2018-07-23T23:15:08.553Z,73.37
2018-07-23T23:17:37.156Z,73.51
2018-07-23T23:20:05.704Z,73.97
2018-07-23T23:22:35.006Z,74.08
2018-07-23T23:25:03.808Z,74.57
2018-07-23T23:27:32.726Z,74.38
2018-07-23T23:30:01.427Z,74.82
2018-07-23T23:32:30.102Z,75.13
2018-07-23T23:34:58.702Z,76.04
2018-07-23T23:37:27.206Z,76.43
2018-07-23T23:39:55.725Z,78.24
2018-07-23T23:42:24.293Z,79.04
2018-07-23T23:44:52.997Z,78.61
2018-07-23T23:47:21.650Z,79.30
2018-07-23T23:49:50.927Z,78.96
2018-07-23T23:52:19.486Z,79.15
2018-07-23T23:54:48.657Z,79.22
2018-07-23T23:57:17.202Z,79.43
2018-07-23T23:59:45.746Z,80.48
